Time;durP1;ratioP1;P1;durP2;ratioP2;P2;SDS_P1;SDS_P2;PMS_P1;PMS_P2;Temp;Humidity;BMP_temperature;BMP_pressure;BME280_temperature;BME280_humidity;BME280_pressure;Samples;Min_cycle;Max_cycle;Signal;HPM_P1;HPM_P2
2023/12/06 00:00:50;;;;;;;36.60;25.20;;;;;;;-2.21;98.89;97084.73;110448;1239;71705;-67
2023/12/06 00:03:35;;;;;;;32.50;22.00;;;;;;;-2.28;100.00;97085.41;110474;1239;69526;-67
2023/12/06 00:06:06;;;;;;;33.40;21.30;;;;;;;-2.33;100.00;97086.91;110471;1237;69838;-67
2023/12/06 00:08:36;;;;;;;37.10;22.80;;;;;;;-2.37;100.00;97089.77;110485;1239;59706;-67
2023/12/06 00:11:08;;;;;;;25.80;17.20;;;;;;;-2.42;100.00;97092.79;110495;1239;59643;-68
2023/12/06 00:13:37;;;;;;;;;;;;;;;-2.48;100.00;97090.39;110532;1239;70796;-67
2023/12/06 00:16:07;;;;;;;38.70;25.10;;;;;;;-2.54;100.00;97090.72;110477;1239;70181;-67
2023/12/06 00:18:41;;;;;;;31.50;22.10;;;;;;;-2.59;100.00;97091.17;110498;1237;69629;-67
2023/12/06 00:21:13;;;;;;;29.30;20.30;;;;;;;-2.64;100.00;97089.44;110467;1239;59679;-67
2023/12/06 00:23:44;;;;;;;25.20;17.30;;;;;;;-2.68;100.00;97089.70;110485;1238;59674;-67
2023/12/06 00:26:17;;;;;;;30.90;20.40;;;;;;;-2.71;100.00;97087.75;110464;1239;70941;-68
2023/12/06 00:28:47;;;;;;;34.30;23.10;;;;;;;-2.73;100.00;97085.41;110476;1239;68693;-67
2023/12/06 00:31:17;;;;;;;33.80;23.50;;;;;;;-2.76;100.00;97082.40;110487;1239;69552;-67
2023/12/06 00:33:50;;;;;;;36.60;22.40;;;;;;;-2.80;100.00;97086.27;110539;1239;59729;-67
2023/12/06 00:36:21;;;;;;;29.60;21.60;;;;;;;-2.84;100.00;97087.20;110498;1239;59657;-69
2023/12/06 00:38:54;;;;;;;34.20;20.40;;;;;;;-2.88;100.00;97084.91;110536;1237;71402;-67
2023/12/06 00:41:27;;;;;;;29.30;21.00;;;;;;;-2.92;100.00;97085.68;110458;1239;69621;-68
2023/12/06 00:44:03;;;;;;;33.20;21.80;;;;;;;-2.94;100.00;97086.27;110479;1239;68828;-68
2023/12/06 00:46:35;;;;;;;23.70;16.10;;;;;;;-2.96;100.00;97084.76;110514;1240;59663;-68
2023/12/06 00:49:06;;;;;;;21.90;14.80;;;;;;;-2.96;100.00;97085.63;110496;1237;59677;-68
2023/12/06 00:51:36;;;;;;;22.10;16.00;;;;;;;-2.97;100.00;97080.02;110479;1238;71498;-68
2023/12/06 00:54:07;;;;;;;25.00;18.10;;;;;;;-2.97;100.00;97080.19;110465;1240;68556;-68
2023/12/06 00:56:38;;;;;;;32.60;20.00;;;;;;;-2.98;100.00;97084.67;110477;1239;69277;-68
2023/12/06 00:59:08;;;;;;;21.30;14.70;;;;;;;-3.00;100.00;97085.05;110503;1239;60017;-67
2023/12/06 01:01:39;;;;;;;24.90;16.60;;;;;;;-3.02;100.00;97084.56;110524;1239;59659;-68
2023/12/06 01:04:09;;;;;;;29.50;19.80;;;;;;;-3.03;100.00;97085.11;110387;1241;71389;-68
2023/12/06 01:06:43;;;;;;;23.20;16.50;;;;;;;-3.05;100.00;97083.98;110541;1239;69137;-67
2023/12/06 01:09:16;;;;;;;30.10;19.60;;;;;;;-3.08;100.00;97079.08;110597;1239;67501;-68
2023/12/06 01:11:47;;;;;;;23.50;16.20;;;;;;;-3.10;100.00;97078.64;110451;1239;59689;-68
2023/12/06 01:14:24;;;;;;;26.20;16.00;;;;;;;-3.13;100.00;97076.48;110530;1239;59626;-67
2023/12/06 01:16:59;;;;;;;31.40;19.80;;;;;;;-3.15;100.00;97074.14;110526;1239;71451;-67
2023/12/06 01:19:30;;;;;;;26.60;17.00;;;;;;;-3.15;100.00;97070.39;110524;1239;67514;-67
2023/12/06 01:22:00;;;;;;;;;;;;;;;-3.15;100.00;97070.73;110567;1239;69279;-68
2023/12/06 01:24:31;;;;;;;22.70;13.90;;;;;;;-3.17;100.00;97067.05;110518;1239;59655;-69
2023/12/06 01:27:08;;;;;;;21.60;12.80;;;;;;;-3.20;100.00;97066.08;110561;1239;59678;-68
2023/12/06 01:29:43;;;;;;;19.50;11.60;;;;;;;-3.22;100.00;97066.48;110501;1239;70759;-69
2023/12/06 01:32:41;;;;;;;23.50;15.30;;;;;;;-3.23;100.00;97064.11;110547;1239;68434;-67
2023/12/06 01:35:12;;;;;;;16.60;12.90;;;;;;;-3.25;100.00;97060.41;110378;1239;68608;-68
2023/12/06 01:37:47;;;;;;;28.20;18.00;;;;;;;-3.26;100.00;97057.36;110484;1239;59705;-69
2023/12/06 01:40:21;;;;;;;22.80;14.70;;;;;;;-3.26;100.00;97057.20;110462;1238;59707;-69
2023/12/06 01:42:57;;;;;;;23.10;15.30;;;;;;;-3.27;100.00;97053.30;110450;1241;70444;-67
2023/12/06 01:45:33;;;;;;;22.00;15.40;;;;;;;-3.25;100.00;97054.79;110515;1241;68729;-67
2023/12/06 01:48:08;;;;;;;22.10;14.40;;;;;;;-3.26;100.00;97050.38;110469;1242;69113;-68
2023/12/06 01:50:43;;;;;;;21.60;14.90;;;;;;;-3.27;100.00;97046.50;110537;1242;59744;-68
2023/12/06 01:53:15;;;;;;;21.20;14.40;;;;;;;-3.28;100.00;97045.48;108658;1242;2461997;-67
2023/12/06 01:55:51;;;;;;;22.00;14.80;;;;;;;-3.29;100.00;97040.90;110565;1242;71377;-68
2023/12/06 01:58:33;;;;;;;21.40;14.80;;;;;;;-3.31;100.00;97038.73;110542;1241;69118;-67
2023/12/06 02:01:06;;;;;;;24.40;15.10;;;;;;;-3.31;100.00;97038.58;110398;1238;69503;-67
2023/12/06 02:03:39;;;;;;;23.80;14.40;;;;;;;-3.28;100.00;97040.89;110398;1241;59647;-66
2023/12/06 02:06:13;;;;;;;24.40;17.40;;;;;;;-3.25;100.00;97039.27;110405;1241;59675;-66
2023/12/06 02:08:46;;;;;;;22.10;15.50;;;;;;;-3.24;100.00;97036.35;110415;1242;70803;-66
2023/12/06 02:11:19;;;;;;;27.00;16.70;;;;;;;-3.24;100.00;97035.52;110376;1241;69248;-66
2023/12/06 02:13:51;;;;;;;20.80;14.40;;;;;;;-3.26;100.00;97032.49;110421;1242;69111;-67
2023/12/06 02:16:23;;;;;;;23.70;15.00;;;;;;;-3.28;100.00;97033.38;110400;1242;59664;-68
2023/12/06 02:18:54;;;;;;;18.90;14.40;;;;;;;-3.29;100.00;97031.18;110405;1239;59734;-68
2023/12/06 02:21:29;;;;;;;20.20;14.20;;;;;;;-3.31;100.00;97026.48;110482;1238;71390;-68
2023/12/06 02:24:06;;;;;;;18.80;11.90;;;;;;;-3.33;100.00;97027.36;110403;1241;69267;-68
2023/12/06 02:26:39;;;;;;;17.80;11.60;;;;;;;-3.35;100.00;97029.28;110359;1240;69268;-68
2023/12/06 02:29:14;;;;;;;21.70;12.40;;;;;;;-3.36;100.00;97026.59;110398;1238;59700;-67
2023/12/06 02:31:46;;;;;;;15.20;11.40;;;;;;;-3.39;100.00;97024.08;110409;1240;59672;-68
2023/12/06 02:34:22;;;;;;;19.60;15.10;;;;;;;-3.41;100.00;97023.13;110370;1238;70765;-67
2023/12/06 02:36:59;;;;;;;19.10;13.20;;;;;;;-3.44;100.00;97024.21;110439;1242;69277;-68
2023/12/06 02:39:35;;;;;;;18.70;12.60;;;;;;;-3.45;100.00;97024.92;110428;1238;68267;-68
2023/12/06 02:42:10;;;;;;;23.00;14.60;;;;;;;-3.44;100.00;97024.04;110465;1239;59628;-68
2023/12/06 02:44:42;;;;;;;22.10;14.90;;;;;;;-3.40;100.00;97021.39;110485;1239;59692;-68
2023/12/06 02:47:16;;;;;;;17.80;13.30;;;;;;;-3.42;100.00;97022.64;110574;1241;71235;-68
2023/12/06 02:50:01;;;;;;;20.30;14.80;;;;;;;-3.45;100.00;97019.48;110524;1242;68334;-68
2023/12/06 02:52:38;;;;;;;18.70;13.40;;;;;;;-3.48;100.00;97017.34;110475;1239;69130;-67
2023/12/06 02:55:09;;;;;;;25.80;15.20;;;;;;;-3.50;100.00;97018.23;110468;1239;59679;-68
2023/12/06 02:57:50;;;;;;;16.40;11.10;;;;;;;-3.53;100.00;97019.99;110544;1239;59690;-68
2023/12/06 03:00:23;;;;;;;19.70;13.70;;;;;;;-3.56;100.00;97015.65;110564;1238;71395;-67
2023/12/06 03:02:58;;;;;;;20.00;14.20;;;;;;;-3.58;100.00;97014.83;110605;1239;68507;-67
2023/12/06 03:05:30;;;;;;;24.40;15.60;;;;;;;-3.59;100.00;97016.04;110577;1243;69286;-67
2023/12/06 03:08:03;;;;;;;24.90;13.80;;;;;;;-3.60;100.00;97014.19;110613;1244;59668;-67
2023/12/06 03:10:35;;;;;;;24.60;16.50;;;;;;;-3.61;100.00;97010.30;110681;1239;59678;-68
2023/12/06 03:13:09;;;;;;;22.00;14.30;;;;;;;-3.59;100.00;97011.97;110684;1242;70924;-67
2023/12/06 03:15:42;;;;;;;17.80;11.90;;;;;;;-3.58;100.00;97010.41;110912;1239;69037;-67
2023/12/06 03:18:15;;;;;;;18.70;13.20;;;;;;;-3.56;100.00;97005.92;110923;1239;69253;-67
2023/12/06 03:20:50;;;;;;;24.00;15.70;;;;;;;-3.56;100.00;97007.45;110689;1239;59734;-68
2023/12/06 03:23:25;;;;;;;19.00;14.60;;;;;;;-3.57;100.00;97008.84;110633;1239;59728;-67
2023/12/06 03:25:57;;;;;;;20.90;13.70;;;;;;;-3.58;100.00;97009.90;110555;1238;71288;-67
2023/12/06 03:28:28;;;;;;;20.60;14.90;;;;;;;-3.59;100.00;97007.02;110674;1246;70084;-66
2023/12/06 03:31:04;;;;;;;20.70;13.50;;;;;;;-3.42;100.00;97005.44;110685;1238;69292;-67
2023/12/06 03:33:35;;;;;;;16.30;11.80;;;;;;;-3.41;100.00;97004.39;110674;1238;59716;-66
2023/12/06 03:36:11;;;;;;;20.00;12.70;;;;;;;-3.40;100.00;97001.97;110595;1239;59743;-69
2023/12/06 03:38:42;;;;;;;19.70;12.60;;;;;;;-3.40;100.00;96999.76;110553;1238;71468;-67
2023/12/06 03:41:12;;;;;;;18.20;11.70;;;;;;;-3.39;100.00;97001.61;110507;1239;68718;-67
2023/12/06 03:43:43;;;;;;;18.60;12.80;;;;;;;-3.40;100.00;96999.92;110556;1239;69121;-66
2023/12/06 03:46:33;;;;;;;17.80;13.00;;;;;;;-3.40;100.00;96996.17;110519;1239;59633;-68
2023/12/06 03:49:06;;;;;;;22.80;15.20;;;;;;;-3.40;100.00;96993.28;110541;1239;59693;-67
2023/12/06 03:51:36;;;;;;;15.90;10.80;;;;;;;-3.41;100.00;96992.97;110624;1240;70588;-67
2023/12/06 03:54:10;;;;;;;15.70;9.50;;;;;;;-3.41;100.00;96992.80;110599;1237;69327;-66
2023/12/06 03:56:44;;;;;;;21.80;13.40;;;;;;;-3.40;100.00;96993.29;110600;1246;68371;-67
2023/12/06 03:59:17;;;;;;;20.50;14.90;;;;;;;-3.41;100.00;96992.64;110493;1241;59743;-66
2023/12/06 04:01:48;;;;;;;22.20;14.50;;;;;;;-3.42;100.00;96995.89;110731;1239;59673;-67
2023/12/06 04:04:20;;;;;;;16.90;11.40;;;;;;;-3.45;100.00;96995.45;110583;1239;71387;-67
2023/12/06 04:06:50;;;;;;;16.60;11.00;;;;;;;-3.46;100.00;96992.92;110439;1238;68553;-67
2023/12/06 04:09:20;;;;;;;17.40;12.50;;;;;;;-3.46;100.00;96989.35;110473;1239;69086;-67
2023/12/06 04:11:51;;;;;;;18.10;13.20;;;;;;;-3.45;100.00;96990.33;110487;1239;59678;-69
2023/12/06 04:14:21;;;;;;;18.20;11.90;;;;;;;-3.46;100.00;96991.73;110448;1242;59672;-67
2023/12/06 04:16:50;;;;;;;16.80;12.50;;;;;;;-3.46;100.00;96988.32;110412;1242;71664;-68
2023/12/06 04:19:20;;;;;;;19.90;12.60;;;;;;;-3.46;100.00;96987.48;110625;1239;69230;-66
2023/12/06 04:21:51;;;;;;;22.70;15.00;;;;;;;-3.46;100.00;96989.86;110565;1241;69741;-66
2023/12/06 04:24:21;;;;;;;;;;;;;;;-3.47;100.00;96992.61;110686;1239;59757;-66
2023/12/06 04:26:53;;;;;;;23.20;15.20;;;;;;;-3.51;100.00;96994.91;110505;1239;59731;-66
2023/12/06 04:29:23;;;;;;;21.20;14.10;;;;;;;-3.54;100.00;96993.45;110442;1239;71368;-66
2023/12/06 04:31:56;;;;;;;22.60;14.70;;;;;;;-3.54;100.00;96992.27;110463;1240;68832;-66
2023/12/06 04:34:27;;;;;;;24.00;16.40;;;;;;;-3.55;100.00;96992.80;110459;1240;69348;-66
2023/12/06 04:36:59;;;;;;;20.90;14.10;;;;;;;-3.57;100.00;96988.41;110457;1238;59660;-66
2023/12/06 04:39:29;;;;;;;21.50;15.20;;;;;;;-3.57;100.00;96983.13;110459;1239;59650;-66
2023/12/06 04:42:01;;;;;;;33.30;20.10;;;;;;;-3.56;100.00;96982.92;110487;1239;71652;-66
2023/12/06 04:44:30;;;;;;;24.90;16.90;;;;;;;-3.57;100.00;96983.30;110454;1238;69379;-68
2023/12/06 04:47:01;;;;;;;25.00;18.30;;;;;;;-3.59;100.00;96982.84;110464;1239;69874;-68
2023/12/06 04:49:31;;;;;;;24.80;18.10;;;;;;;-3.62;100.00;96979.48;110494;1239;59697;-68
2023/12/06 04:52:04;;;;;;;27.60;19.50;;;;;;;-3.65;100.00;96981.45;110538;1239;59672;-68
2023/12/06 04:54:34;;;;;;;32.00;21.50;;;;;;;-3.68;100.00;96979.46;110521;1241;71979;-66
2023/12/06 04:57:04;;;;;;;28.60;18.90;;;;;;;-3.71;100.00;96981.41;110550;1239;68425;-66
2023/12/06 04:59:34;;;;;;;23.70;17.40;;;;;;;-3.69;100.00;96977.79;110521;1239;68417;-66
2023/12/06 05:02:03;;;;;;;19.40;12.70;;;;;;;-3.77;100.00;96976.77;110392;1241;59711;-67
2023/12/06 05:04:33;;;;;;;30.20;18.70;;;;;;;-3.80;100.00;96978.54;110442;1242;59672;-66
2023/12/06 05:07:03;;;;;;;23.40;16.90;;;;;;;-3.82;100.00;96983.04;110505;1237;72038;-68
2023/12/06 05:09:33;;;;;;;24.50;16.90;;;;;;;-3.75;100.00;96987.80;110523;1239;68363;-67
2023/12/06 05:12:03;;;;;;;22.50;15.90;;;;;;;-3.71;100.00;96984.98;110516;1245;67528;-67
2023/12/06 05:14:33;;;;;;;16.70;12.40;;;;;;;-3.68;100.00;96981.16;110524;1239;59718;-68
2023/12/06 05:17:02;;;;;;;24.10;14.60;;;;;;;-3.65;100.00;96977.51;110549;1239;59675;-68
2023/12/06 05:19:31;;;;;;;22.70;14.20;;;;;;;-3.64;100.00;96975.95;110670;1239;71523;-68
2023/12/06 05:22:01;;;;;;;29.30;20.00;;;;;;;-3.62;100.00;96978.45;110665;1239;69195;-67
2023/12/06 05:24:31;;;;;;;27.80;19.70;;;;;;;-3.62;100.00;96978.63;110524;1239;69467;-67
2023/12/06 05:27:00;;;;;;;30.70;21.30;;;;;;;-3.64;100.00;96972.89;110502;1239;59692;-68
2023/12/06 05:29:32;;;;;;;29.70;17.30;;;;;;;-3.67;100.00;96972.98;110548;1242;59762;-68
2023/12/06 05:32:02;;;;;;;27.00;18.10;;;;;;;-3.67;100.00;96973.31;110572;1238;71386;-68
2023/12/06 05:34:33;;;;;;;27.80;18.40;;;;;;;-3.68;100.00;96970.80;110610;1242;69495;-68
2023/12/06 05:37:04;;;;;;;24.60;18.30;;;;;;;-3.68;100.00;96966.67;110543;1245;69334;-67
2023/12/06 05:39:36;;;;;;;27.60;18.70;;;;;;;-3.68;100.00;96964.29;110584;1239;59719;-68
2023/12/06 05:42:08;;;;;;;29.70;20.50;;;;;;;-3.68;100.00;96957.33;110590;1239;59660;-68
2023/12/06 05:44:39;;;;;;;30.30;22.90;;;;;;;-3.68;100.00;96958.36;110656;1239;71359;-67
2023/12/06 05:47:12;;;;;;;29.40;18.90;;;;;;;-3.68;100.00;96955.45;110676;1239;69634;-67
2023/12/06 05:49:42;;;;;;;29.20;19.40;;;;;;;-3.67;100.00;96957.31;110615;1240;69251;-66
2023/12/06 05:52:12;;;;;;;30.60;20.10;;;;;;;-3.68;100.00;96956.31;110511;1239;59814;-67
2023/12/06 05:54:43;;;;;;;31.00;21.60;;;;;;;-3.67;100.00;96958.67;110617;1241;60115;-67
2023/12/06 05:57:13;;;;;;;31.20;22.50;;;;;;;-3.67;100.00;96958.81;110504;1239;72086;-69
2023/12/06 05:59:43;;;;;;;35.30;22.60;;;;;;;-3.66;100.00;96959.64;110560;1239;69072;-66
2023/12/06 06:02:14;;;;;;;36.20;23.60;;;;;;;-3.65;100.00;96961.16;110556;1241;68714;-67
2023/12/06 06:04:46;;;;;;;38.70;24.50;;;;;;;-3.63;100.00;96966.07;110596;1241;59648;-66
2023/12/06 06:07:17;;;;;;;38.30;25.50;;;;;;;-3.62;100.00;96970.11;110614;1240;59798;-67
2023/12/06 06:09:46;;;;;;;33.70;20.80;;;;;;;-3.61;100.00;96971.79;110707;1241;71386;-67
2023/12/06 06:12:27;;;;;;;30.80;20.80;;;;;;;-3.61;100.00;96972.46;110616;1241;69234;-67
2023/12/06 06:14:57;;;;;;;;;;;;;;;-3.58;100.00;96970.89;110503;1248;68699;-67
2023/12/06 06:17:27;;;;;;;33.00;21.80;;;;;;;-3.56;100.00;96971.36;110539;1240;59686;-67
2023/12/06 06:19:57;;;;;;;32.30;21.80;;;;;;;-3.53;100.00;96975.20;110524;1239;59657;-67
2023/12/06 06:22:28;;;;;;;30.30;22.50;;;;;;;-3.50;100.00;96973.92;110568;1239;71368;-67
2023/12/06 06:24:57;;;;;;;39.60;28.50;;;;;;;-3.47;100.00;96978.45;110404;1240;70095;-67
2023/12/06 06:27:27;;;;;;;36.10;23.90;;;;;;;-3.44;100.00;96979.05;110516;1240;70015;-67
2023/12/06 06:29:58;;;;;;;46.30;30.70;;;;;;;-3.39;100.00;96974.88;110426;1239;59737;-68
2023/12/06 06:32:27;;;;;;;;;;;;;;;-3.34;100.00;96975.77;110473;1239;59678;-67
2023/12/06 06:34:57;;;;;;;33.90;19.70;;;;;;;-3.27;100.00;96977.80;110531;1240;71223;-67
2023/12/06 06:37:27;;;;;;;33.90;22.60;;;;;;;-3.19;100.00;96977.77;110359;1242;68524;-67
2023/12/06 06:39:57;;;;;;;35.80;20.80;;;;;;;-3.14;100.00;96973.88;110478;1246;69830;-68
2023/12/06 06:42:27;;;;;;;42.00;26.70;;;;;;;-3.07;100.00;96977.11;110576;1239;59713;-68
2023/12/06 06:44:57;;;;;;;34.40;24.00;;;;;;;-3.01;100.00;96983.28;110605;1239;59675;-67
2023/12/06 06:47:27;;;;;;;37.60;24.70;;;;;;;-2.96;100.00;96986.90;110561;1239;71224;-67
2023/12/06 06:49:59;;;;;;;36.80;24.30;;;;;;;-2.89;100.00;96990.62;110517;1238;69217;-68
2023/12/06 06:52:29;;;;;;;29.90;20.50;;;;;;;-2.80;100.00;96992.27;110611;1245;69404;-68
2023/12/06 06:54:59;;;;;;;33.80;21.70;;;;;;;-2.72;100.00;96993.27;110582;1239;59749;-68
2023/12/06 06:57:29;;;;;;;34.90;22.10;;;;;;;-2.64;100.00;97000.70;110614;1239;59708;-67
2023/12/06 06:59:59;;;;;;;30.10;21.30;;;;;;;-2.57;100.00;97002.57;110590;1239;70563;-67
2023/12/06 07:02:29;;;;;;;31.80;21.70;;;;;;;-2.50;100.00;97000.85;110540;1237;70013;-65
2023/12/06 07:05:00;;;;;;;32.30;21.50;;;;;;;-2.43;100.00;97001.85;110446;1246;69537;-65
2023/12/06 07:07:30;;;;;;;29.90;21.10;;;;;;;-2.36;100.00;96999.44;110405;1242;59680;-66
2023/12/06 07:10:04;;;;;;;39.60;27.10;;;;;;;-2.25;100.00;96999.48;110400;1241;59682;-67
2023/12/06 07:12:33;;;;;;;41.00;26.80;;;;;;;-2.14;100.00;97000.68;110389;1242;71315;-68
2023/12/06 07:15:03;;;;;;;;;;;;;;;-2.08;100.00;97004.95;110473;1242;69884;-65
2023/12/06 07:17:33;;;;;;;60.70;40.20;;;;;;;-2.01;100.00;97004.58;110395;1245;69854;-66
2023/12/06 07:20:02;;;;;;;82.50;52.00;;;;;;;-1.92;100.00;97004.49;110465;1241;59734;-68
2023/12/06 07:22:33;;;;;;;71.80;43.80;;;;;;;-1.84;100.00;97001.66;110463;1240;59669;-66
2023/12/06 07:25:05;;;;;;;67.60;43.60;;;;;;;-1.73;100.00;97003.08;110547;1239;71503;-66
2023/12/06 07:27:34;;;;;;;64.60;39.40;;;;;;;-1.66;100.00;96997.02;110410;1241;69221;-67
2023/12/06 07:30:04;;;;;;;65.30;40.00;;;;;;;-1.57;100.00;96994.19;110391;1241;69216;-67
2023/12/06 07:32:33;;;;;;;;;;;;;;;-1.46;100.00;96990.27;110396;1243;59966;-66
2023/12/06 07:35:19;;;;;;;48.50;30.50;;;;;;;-1.33;100.00;96991.05;110458;1238;59734;-67
2023/12/06 07:37:49;;;;;;;;;;;;;;;-1.19;100.00;96989.56;110413;1244;71204;-67
2023/12/06 07:40:18;;;;;;;51.70;34.70;;;;;;;-1.09;100.00;96988.90;110615;1242;69672;-67
2023/12/06 07:42:49;;;;;;;65.20;39.40;;;;;;;-1.02;100.00;96984.88;110532;1245;68322;-67
2023/12/06 07:45:18;;;;;;;68.50;45.80;;;;;;;-0.97;100.00;96982.49;110562;1243;59741;-68
2023/12/06 07:47:51;;;;;;;61.60;42.10;;;;;;;-0.89;100.00;96986.70;110600;1240;59734;-67
2023/12/06 07:50:21;;;;;;;64.30;40.50;;;;;;;-0.80;100.00;96985.02;110576;1239;71353;-67
2023/12/06 07:52:51;;;;;;;64.10;44.90;;;;;;;-0.71;100.00;96981.95;110536;1240;69269;-67
2023/12/06 07:55:22;;;;;;;;;;;;;;;-0.63;100.00;96985.45;110422;1244;68613;-67
2023/12/06 07:57:54;;;;;;;61.50;39.60;;;;;;;-0.58;100.00;96983.55;110437;1242;59721;-67
2023/12/06 08:00:25;;;;;;;57.30;37.70;;;;;;;-0.50;100.00;96980.89;110511;1239;59683;-68
2023/12/06 08:02:54;;;;;;;48.00;35.00;;;;;;;-0.39;100.00;96975.15;110389;1243;72303;-67
2023/12/06 08:05:24;;;;;;;57.30;39.70;;;;;;;-0.20;100.00;96976.88;110443;1241;69771;-68
2023/12/06 08:07:54;;;;;;;52.10;35.10;;;;;;;0.02;100.00;96973.84;110618;1238;68349;-67
2023/12/06 08:10:23;;;;;;;53.70;34.60;;;;;;;0.22;100.00;96972.87;110530;1237;59696;-66
2023/12/06 08:12:54;;;;;;;50.10;33.10;;;;;;;0.52;100.00;96975.33;110389;1242;59670;-66
2023/12/06 08:15:24;;;;;;;52.20;34.90;;;;;;;0.82;99.86;96976.01;110556;1244;71297;-67
2023/12/06 08:17:56;;;;;;;43.60;30.60;;;;;;;1.07;100.00;96973.92;110526;1240;69266;-67
2023/12/06 08:20:25;;;;;;;45.50;31.20;;;;;;;1.28;100.00;96979.73;110558;1240;68361;-67
2023/12/06 08:22:57;;;;;;;45.90;30.40;;;;;;;1.40;99.03;96976.84;110606;1239;59692;-67
2023/12/06 08:25:26;;;;;;;46.60;32.40;;;;;;;1.46;94.22;96977.26;110552;1241;59708;-67
2023/12/06 08:27:55;;;;;;;50.80;34.80;;;;;;;1.72;95.09;96977.67;110519;1241;71791;-67
2023/12/06 08:30:26;;;;;;;46.90;31.00;;;;;;;1.99;99.58;96973.36;110636;1237;69241;-66
2023/12/06 08:32:57;;;;;;;45.20;31.40;;;;;;;2.15;96.53;96975.56;110445;1239;68878;-66
2023/12/06 08:35:26;;;;;;;50.60;34.30;;;;;;;2.36;97.19;96978.55;110477;1239;59660;-66
2023/12/06 08:37:56;;;;;;;54.90;34.80;;;;;;;2.51;92.41;96978.51;110604;1239;59678;-66
2023/12/06 08:40:26;;;;;;;52.00;34.00;;;;;;;2.76;93.18;96978.52;110449;1241;71736;-67
2023/12/06 08:42:55;;;;;;;52.40;35.70;;;;;;;2.91;87.42;96981.23;110559;1246;69216;-67
2023/12/06 08:45:25;;;;;;;45.70;31.30;;;;;;;3.14;89.33;96982.52;110564;1248;69069;-67
2023/12/06 08:47:55;;;;;;;44.30;29.70;;;;;;;3.40;89.98;96981.17;110608;1243;60118;-67
2023/12/06 08:50:25;;;;;;;46.60;29.40;;;;;;;3.56;83.38;96982.92;110562;1239;59666;-67
2023/12/06 08:52:55;;;;;;;39.70;29.60;;;;;;;3.58;79.36;96976.99;110600;1239;71946;-69
2023/12/06 08:55:24;;;;;;;37.90;27.20;;;;;;;3.85;79.87;96974.38;110495;1239;69212;-67
2023/12/06 08:57:54;;;;;;;;;;;;;;;4.11;78.43;96971.05;110424;1238;69723;-67
2023/12/06 09:00:24;;;;;;;36.30;23.90;;;;;;;4.34;81.14;96968.47;110466;1239;59676;-67
2023/12/06 09:02:53;;;;;;;41.20;29.40;;;;;;;4.41;77.20;96963.92;110471;1243;60114;-67
2023/12/06 09:05:23;;;;;;;43.20;31.10;;;;;;;4.59;75.82;96959.84;110497;1244;71807;-67
2023/12/06 09:07:53;;;;;;;45.40;32.50;;;;;;;4.76;74.85;96958.16;110436;1239;69279;-67
2023/12/06 09:10:22;;;;;;;47.50;34.00;;;;;;;4.88;74.60;96956.79;110462;1239;69443;-67
2023/12/06 09:12:52;;;;;;;38.10;28.00;;;;;;;5.10;74.98;96950.86;110470;1239;59675;-67
2023/12/06 09:15:21;;;;;;;36.10;26.80;;;;;;;5.43;75.17;96947.89;110544;1238;59727;-67
2023/12/06 09:17:50;;;;;;;37.50;26.40;;;;;;;5.69;74.63;96945.13;110555;1239;71980;-67
2023/12/06 09:20:20;;;;;;;;;;;;;;;5.88;69.73;96937.54;110492;1239;69783;-69
2023/12/06 09:22:50;;;;;;;44.00;31.50;;;;;;;6.21;68.28;96934.52;110583;1239;68523;-69
2023/12/06 09:25:19;;;;;;;34.60;26.50;;;;;;;6.71;69.49;96935.29;110556;1239;59713;-67
2023/12/06 09:27:50;;;;;;;34.40;26.30;;;;;;;7.11;64.15;96931.27;110613;1240;59679;-68
2023/12/06 09:30:19;;;;;;;35.80;28.40;;;;;;;7.62;63.18;96923.98;110514;1239;71309;-68
2023/12/06 09:32:49;;;;;;;34.10;24.90;;;;;;;7.96;67.22;96921.65;110602;1239;69018;-67
2023/12/06 09:35:18;;;;;;;40.50;32.50;;;;;;;8.18;65.67;96921.66;110659;1239;69692;-68
2023/12/06 09:37:48;;;;;;;35.60;27.20;;;;;;;8.41;67.88;96919.52;110669;1239;59731;-68
2023/12/06 09:40:19;;;;;;;33.00;27.50;;;;;;;8.91;65.52;96913.17;110557;1239;59672;-67
2023/12/06 09:42:56;;;;;;;38.70;29.30;;;;;;;9.00;61.79;96908.98;110566;1240;71185;-67
2023/12/06 09:45:27;;;;;;;34.90;27.00;;;;;;;8.88;60.74;96904.15;110456;1241;70169;-67
2023/12/06 09:47:57;;;;;;;37.20;29.80;;;;;;;8.51;60.40;96901.30;110451;1240;68629;-68
2023/12/06 09:50:27;;;;;;;34.10;24.50;;;;;;;8.67;58.97;96900.30;110646;1239;59703;-68
2023/12/06 09:52:57;;;;;;;27.30;21.80;;;;;;;8.91;59.59;96898.90;110574;1237;60223;-68
2023/12/06 09:55:31;;;;;;;32.60;26.20;;;;;;;8.80;56.37;96894.46;110395;1239;72133;-68
2023/12/06 09:58:06;;;;;;;29.30;23.10;;;;;;;9.32;55.98;96891.13;110452;1239;69259;-68
2023/12/06 10:00:36;;;;;;;31.70;25.70;;;;;;;9.40;56.73;96890.47;110447;1243;69365;-67
2023/12/06 10:03:05;;;;;;;;;;;;;;;9.11;55.41;96887.64;110520;1246;59695;-67
2023/12/06 10:05:38;;;;;;;35.90;27.90;;;;;;;8.76;56.60;96885.71;110555;1240;59662;-68
2023/12/06 10:08:07;;;;;;;35.00;28.70;;;;;;;8.96;56.42;96883.87;110451;1245;71331;-69
2023/12/06 10:10:36;;;;;;;28.00;23.10;;;;;;;8.99;57.00;96879.85;110477;1239;69834;-67
2023/12/06 10:13:06;;;;;;;28.60;22.40;;;;;;;9.04;55.35;96877.08;110544;1240;69849;-67
2023/12/06 10:15:39;;;;;;;30.50;24.20;;;;;;;9.50;54.72;96872.86;110521;1239;59673;-67
2023/12/06 10:18:14;;;;;;;27.60;21.80;;;;;;;9.77;52.59;96866.11;110485;1246;59626;-66
2023/12/06 10:20:44;;;;;;;25.40;19.70;;;;;;;9.75;51.00;96866.77;110348;1241;70787;-68
2023/12/06 10:23:13;;;;;;;;;;;;;;;10.45;50.46;96866.94;110373;1242;70345;-67
2023/12/06 10:25:47;;;;;;;;;;;;;;;10.57;49.27;96864.72;110439;1239;69419;-67
2023/12/06 10:28:18;;;;;;;21.60;17.50;;;;;;;10.76;49.48;96866.02;110437;1240;59748;-67
2023/12/06 10:30:58;;;;;;;22.20;17.20;;;;;;;11.13;48.33;96860.29;110598;1239;59612;-69
2023/12/06 10:33:31;;;;;;;20.00;17.10;;;;;;;11.27;47.23;96859.13;110454;1239;71408;-68
2023/12/06 10:36:03;;;;;;;22.70;17.80;;;;;;;11.84;47.58;96854.95;110519;1239;69117;-67
2023/12/06 10:38:32;;;;;;;20.90;17.70;;;;;;;12.08;46.32;96854.80;110505;1246;69857;-67
2023/12/06 10:41:04;;;;;;;19.00;15.60;;;;;;;12.46;47.61;96851.64;110672;1239;60140;-67
2023/12/06 10:43:37;;;;;;;17.80;15.30;;;;;;;12.47;44.20;96848.20;110481;1240;59693;-68
2023/12/06 10:46:09;;;;;;;18.20;14.40;;;;;;;12.67;45.99;96847.86;110591;1246;70712;-68
2023/12/06 10:48:39;;;;;;;17.30;15.50;;;;;;;12.81;45.39;96849.23;110387;1243;68365;-66
2023/12/06 10:51:09;;;;;;;23.90;18.90;;;;;;;12.47;44.17;96847.83;110412;1239;69302;-67
2023/12/06 10:53:42;;;;;;;21.40;18.00;;;;;;;12.34;44.71;96849.38;110613;1239;59728;-69
2023/12/06 10:56:15;;;;;;;24.40;20.00;;;;;;;12.55;46.44;96843.80;110452;1238;59733;-67
2023/12/06 10:58:46;;;;;;;26.60;21.70;;;;;;;12.18;45.28;96839.27;110440;1238;71128;-66
2023/12/06 11:01:16;;;;;;;28.90;23.10;;;;;;;12.02;45.57;96842.77;110414;1239;69026;-67
2023/12/06 11:03:46;;;;;;;29.00;23.30;;;;;;;12.01;44.83;96840.28;110445;1238;69437;-67
2023/12/06 11:06:29;;;;;;;32.20;26.10;;;;;;;11.53;45.57;96835.65;110598;1240;59740;-68
2023/12/06 11:09:16;;;;;;;25.90;21.30;;;;;;;11.06;46.77;96838.92;110497;1240;59671;-67
2023/12/06 11:12:07;;;;;;;28.30;23.70;;;;;;;11.37;46.46;96836.12;110423;1239;71362;-66
2023/12/06 11:15:13;;;;;;;26.90;21.10;;;;;;;11.33;46.41;96834.21;110429;1239;69125;-67
2023/12/06 11:18:04;;;;;;;24.70;19.50;;;;;;;11.56;46.31;96831.86;110432;1240;68363;-68
2023/12/06 11:20:43;;;;;;;22.90;19.30;;;;;;;11.74;45.91;96835.59;110456;1239;59657;-67
2023/12/06 11:23:13;;;;;;;24.30;19.80;;;;;;;11.26;46.01;96838.66;110508;1238;59675;-67
2023/12/06 11:25:44;;;;;;;25.00;19.10;;;;;;;10.68;46.83;96843.52;110491;1239;71993;-67
2023/12/06 11:28:14;;;;;;;;;;;;;;;10.36;47.48;96842.48;110449;1241;68467;-67
2023/12/06 11:30:50;;;;;;;;;;;;;;;9.83;48.45;96842.67;110579;1239;68294;-66